Baltic BCS3 at Riga on Dec 3rd 2021, runway excursion while vacating the runway

Last Update: December 3, 2021 / 14:44:06 GMT/Zulu time

Bookmark this article
Incident Facts

Date of incident
Dec 3, 2021

Classification
Incident

Airline
Air Baltic

Flight number
BT-102

Destination
Riga, Latvia

Aircraft Registration
YL-CSE

Aircraft Type
Airbus A220-300

ICAO Type Designator
BCS3

Airport ICAO Code
EVRA

An Air Baltic Bombardier C-Series CS-300, registration YL-CSE performing flight BT-102 from Stockholm (Sweden) to Riga (Latvia) with 44 people on board, landed on Riga's runway 36 at about 11:55L (09:55Z) when the crew reported they were at the right hand side of the runway about 1700 meters/5600 feet down the runway occupying the runway after they went off the runway while attempting to vacate the runway via a taxiway and became stuck in snow almost perpendicular to the runway. The passengers disembarked via stairs at the left aft main door onto the runway.

The airport confirmed an aviation incident occurred at Riga Airport when the aircraft veered off the taxiway due to poor visibility, the runway needed to be closed.

Related NOTAM:
A2084/21 NOTAMN
Q) EVRR/QMRLC/IV/NBO/A /000/999/5655N02358E005
A) EVRA B) 2112031011 C) 2112031300
E) RWY 18/36 CLSD.

Metars:
EVRA 031120Z 27006KT 240V310 1200 0800 R36/1000U SN SCT004 OVC007 M02/M03 Q0994 RESN NOSIG=
EVRA 031050Z 27007KT 230V320 0750 0700 R36/1400U +SN SCT003 OVC006 M02/M03 Q0993 TEMPO OVC005=
EVRA 031020Z 28006KT 220V350 0750 0500 R36/1300U +SN BKN005 OVC010 M02/M03 Q0993 TEMPO 2000 SN=
EVRA 030950Z 28004KT 210V340 0750 0650 R36/1300N +SN BKN005 OVC009 M02/M03 Q0993 TEMPO 2000 SN=
EVRA 030920Z 27007KT 230V310 1200 1000 R36/1400D SN BKN005 OVC012 M02/M03 Q0992 TEMPO 0700 +SN=
EVRA 030850Z 28006KT 230V330 1000 0900 R36/1000U SN BKN005 OVC010 M02/M03 Q0992 RESN TEMPO 3000 -SN=
EVRA 030820Z 28006KT 230V330 1100 0900 R36/1200D SN BKN005 OVC011 M02/M03 Q0991 REFZDZ TEMPO 0700=
EVRA 030750Z 28006KT 240V330 5000 2200 -FZDZ BR BKN005 OVC009 M02/M02 Q0991 RESN NOSIG=
EVRA 030720Z 29009KT 240V330 1800 1300 R36/P2000N SN BKN004 OVC010 M02/M02 Q0990 TEMPO BKN005=
EVRA 030650Z 30007G18KT 250V340 2100 SN OVC004 M01/M01 Q0989 TEMPO BKN005=
EVRA 030620Z 31007KT 260V340 2300 SN BKN004 OVC013 M01/M01 Q0989 TEMPO BKN005=
EVRA 030550Z 32007KT 280V350 2800 SN BKN005 OVC011 M01/M01 Q0988 NOSIG=
Incident Facts

Date of incident
Dec 3, 2021

Classification
Incident

Airline
Air Baltic

Flight number
BT-102

Destination
Riga, Latvia

Aircraft Registration
YL-CSE

Aircraft Type
Airbus A220-300

ICAO Type Designator
BCS3

Airport ICAO Code
EVRA

This article is published under license from Avherald.com. © of text by Avherald.com.
Article source

You can read 4 more free articles without a subscription.

Subscribe now and continue reading without any limits!

Are you a subscriber?
Login
Subscribe

Read unlimited articles and receive our daily update briefing. Gain better insights into what is happening in commercial aviation safety.

Free newsletter

Want to know more and stay ahead? Get our free weekly newsletter and join 5243 existing subscribers.

By subscribing, you accept our terms and conditions and confirm that you've read our privacy policy.

Send tip

Support AeroInside by sending a small tip amount.

Related articles

Newest articles

Subscribe today

Are you researching aviation incidents? Get access to AeroInside Insights, unlimited read access and receive the daily newsletter.

Pick your plan and subscribe

Partner

Blockaviation logo

A new way to document and demonstrate airworthiness compliance and aircraft value. Find out more.

Virtual Speech logo

ELITE Simulation Solutions is a leading global provider of Flight Simulation Training Devices, IFR training software as well as flight controls and related services. Find out more.

Get updates

Never miss an article from AeroInside. Subscribe to our free weekly newsletter and join 5243 existing subscribers.

By subscribing, you accept our terms and conditions and that you've read our privacy policy.

AeroInside Blog
Popular aircraft
Airbus A320
Boeing 737-800
Boeing 737-800 MAX
Popular airlines
American Airlines
United
Delta
Air Canada
Lufthansa
British Airways